Time;durP1;ratioP1;P1;durP2;ratioP2;P2;SDS_P1;SDS_P2;PMS_P1;PMS_P2;Temp;Humidity;BMP_temperature;BMP_pressure;BME280_temperature;BME280_humidity;BME280_pressure;Samples;Min_cycle;Max_cycle;Signal;HPM_P1;HPM_P2
2023/11/28 00:08:48;;;;;;;67.10;51.20;;;;;;;-6.14;100.00;97950.73;435922;1253;140366;-67
2023/11/28 00:18:55;;;;;;;58.60;44.50;;;;;;;-6.17;100.00;97942.11;435328;1254;140457;-67
2023/11/28 00:29:02;;;;;;;62.00;45.70;;;;;;;-6.16;100.00;97934.26;435709;1251;141513;-66
2023/11/28 00:39:08;;;;;;;61.20;47.40;;;;;;;-6.13;100.00;97929.58;436011;1253;140027;-66
2023/11/28 00:49:14;;;;;;;56.10;41.20;;;;;;;-6.06;100.00;97921.42;435697;1251;139952;-67
2023/11/28 00:59:21;;;;;;;60.40;46.20;;;;;;;-6.06;100.00;97914.42;435922;1250;140170;-66
2023/11/28 01:09:27;;;;;;;52.80;40.40;;;;;;;-6.02;100.00;97896.96;436395;1250;139710;-67
2023/11/28 01:19:33;;;;;;;54.80;40.20;;;;;;;-5.98;100.00;97882.36;435558;1253;140855;-66
2023/11/28 01:29:40;;;;;;;52.30;35.10;;;;;;;-5.99;100.00;97871.64;435820;1253;140392;-66
2023/11/28 01:39:46;;;;;;;50.60;37.90;;;;;;;-6.01;100.00;97865.06;435837;1251;140483;-66
2023/11/28 01:49:52;;;;;;;57.90;40.30;;;;;;;-6.08;100.00;97863.19;435936;1254;140610;-66
2023/11/28 01:59:59;;;;;;;53.80;40.50;;;;;;;-6.13;100.00;97851.73;435655;1255;139886;-66
2023/11/28 02:10:06;;;;;;;49.70;38.50;;;;;;;-6.12;100.00;97840.99;436490;1249;140201;-66
2023/11/28 02:20:12;;;;;;;55.90;36.80;;;;;;;-6.09;100.00;97835.61;435903;1253;140730;-66
2023/11/28 02:30:18;;;;;;;50.70;36.40;;;;;;;-6.07;100.00;97811.20;435632;1253;140540;-66
2023/11/28 02:40:25;;;;;;;45.40;33.40;;;;;;;-6.00;100.00;97807.96;435851;1254;140957;-67
2023/11/28 02:50:31;;;;;;;44.20;30.60;;;;;;;-5.91;100.00;97787.77;436063;1250;140069;-67
2023/11/28 03:00:37;;;;;;;38.90;29.80;;;;;;;-5.87;100.00;97767.55;435733;1250;139895;-67
2023/11/28 03:10:44;;;;;;;38.40;28.70;;;;;;;-5.84;100.00;97751.79;435723;1253;140962;-67
2023/11/28 03:20:51;;;;;;;40.80;30.70;;;;;;;-5.75;100.00;97750.52;435841;1253;140355;-67
2023/11/28 03:30:57;;;;;;;43.10;30.70;;;;;;;-5.68;100.00;97730.73;435767;1250;140382;-66
2023/11/28 03:41:10;;;;;;;37.90;27.10;;;;;;;-5.66;100.00;97722.49;435707;1250;140853;-67
2023/11/28 03:51:18;;;;;;;35.50;26.70;;;;;;;-5.63;100.00;97707.41;436573;1251;140704;-66
2023/11/28 04:01:25;;;;;;;38.70;27.60;;;;;;;-5.56;100.00;97699.04;435873;1253;139844;-67
2023/11/28 04:11:31;;;;;;;41.10;28.60;;;;;;;-5.54;100.00;97692.99;435628;1250;140898;-67
2023/11/28 04:21:38;;;;;;;40.10;28.90;;;;;;;-5.56;100.00;97671.22;435636;1253;140879;-66
2023/11/28 04:31:44;;;;;;;37.30;26.40;;;;;;;-5.59;100.00;97673.52;436447;1250;141030;-67
2023/11/28 04:41:50;;;;;;;35.20;26.20;;;;;;;-5.65;100.00;97674.38;435793;1250;140753;-67
2023/11/28 04:51:56;;;;;;;37.40;28.50;;;;;;;-5.75;100.00;97663.93;435812;1253;140639;-67
2023/11/28 05:02:04;;;;;;;42.70;28.20;;;;;;;-5.79;100.00;97649.55;436364;1255;140411;-67
2023/11/28 05:12:11;;;;;;;40.20;27.00;;;;;;;-5.82;100.00;97632.45;437503;1251;140658;-66
2023/11/28 05:22:17;;;;;;;39.20;31.40;;;;;;;-5.85;100.00;97626.23;437694;1252;140331;-67
2023/11/28 05:32:24;;;;;;;33.80;25.90;;;;;;;-5.83;100.00;97621.20;436292;1250;140127;-67
2023/11/28 05:42:30;;;;;;;33.70;26.30;;;;;;;-5.75;100.00;97622.36;436009;1254;141340;-66
2023/11/28 05:52:37;;;;;;;36.30;24.60;;;;;;;-5.65;100.00;97617.80;435917;1253;141396;-67
2023/11/28 06:02:44;;;;;;;34.40;24.90;;;;;;;-5.55;100.00;97614.10;436650;1251;140498;-66
2023/11/28 06:12:50;;;;;;;33.10;24.30;;;;;;;-5.46;100.00;97620.12;436075;1253;141212;-67
2023/11/28 06:22:57;;;;;;;25.00;20.00;;;;;;;-5.37;100.00;97624.80;435604;1256;140112;-67
2023/11/28 06:33:03;;;;;;;29.30;22.40;;;;;;;-5.28;100.00;97642.92;435707;1255;140106;-67
2023/11/28 06:43:10;;;;;;;28.50;20.30;;;;;;;-5.17;100.00;97637.99;435730;1254;140313;-67
2023/11/28 06:53:16;;;;;;;28.50;19.10;;;;;;;-5.03;100.00;97642.34;435817;1250;140668;-67
2023/11/28 07:03:23;;;;;;;24.50;18.00;;;;;;;-4.88;100.00;97642.86;435244;1257;141372;-67
2023/11/28 07:13:29;;;;;;;23.10;16.50;;;;;;;-4.73;100.00;97636.74;435402;1254;140737;-73
2023/11/28 07:23:37;;;;;;;31.90;16.20;;;;;;;-4.56;100.00;97635.51;438777;1253;140900;-66
2023/11/28 07:33:43;;;;;;;20.30;16.00;;;;;;;-4.38;100.00;97652.81;435813;1253;139887;-75
2023/11/28 07:43:49;;;;;;;28.50;17.60;;;;;;;-4.23;100.00;97649.41;439179;1254;140516;-69
2023/11/28 07:53:56;;;;;;;23.30;16.70;;;;;;;-4.08;100.00;97642.22;436751;1253;140079;-74
2023/11/28 08:04:02;;;;;;;19.70;14.00;;;;;;;-3.92;100.00;97638.73;438936;1254;140098;-67
2023/11/28 08:14:08;;;;;;;23.50;16.80;;;;;;;-3.75;100.00;97645.64;437947;1255;140131;-64
2023/11/28 08:24:15;;;;;;;20.70;16.10;;;;;;;-3.63;100.00;97644.35;438490;1253;140917;-69
2023/11/28 08:34:21;;;;;;;22.10;17.00;;;;;;;-3.46;100.00;97636.84;435786;1254;142396;-73
2023/11/28 08:44:27;;;;;;;23.20;16.70;;;;;;;-3.37;100.00;97633.43;439561;1253;140603;-67
2023/11/28 08:54:34;;;;;;;28.70;17.20;;;;;;;-3.28;100.00;97631.40;437112;1252;140198;-73
2023/11/28 09:04:40;;;;;;;25.40;16.80;;;;;;;-3.20;100.00;97625.42;436688;1251;141075;-67
2023/11/28 09:14:47;;;;;;;27.80;18.20;;;;;;;-3.06;100.00;97624.67;435905;1253;140007;-65
2023/11/28 09:25:03;;;;;;;18.10;14.80;;;;;;;-2.93;100.00;97609.62;437034;1253;140072;-67
2023/11/28 09:35:11;;;;;;;20.60;14.70;;;;;;;-2.83;100.00;97604.77;436248;1253;141592;-66
2023/11/28 09:45:20;;;;;;;20.90;14.50;;;;;;;-2.79;100.00;97596.86;435837;1251;140221;-69
2023/11/28 09:55:27;;;;;;;22.70;15.10;;;;;;;-2.64;100.00;97587.73;435813;1253;139800;-70
2023/11/28 10:05:34;;;;;;;18.80;13.70;;;;;;;-2.49;100.00;97566.19;438031;1253;140101;-71
2023/11/28 10:15:42;;;;;;;17.40;13.70;;;;;;;-2.42;100.00;97557.30;435994;1253;140775;-69
2023/11/28 10:25:50;;;;;;;21.10;15.10;;;;;;;-2.42;100.00;97547.34;436500;1252;140882;-68
2023/11/28 10:35:56;;;;;;;22.10;15.50;;;;;;;-2.45;99.93;97543.02;436674;1251;141428;-65
2023/11/28 10:46:01;;;;;;;;;;;;;;;-2.33;100.00;97550.40;436209;1251;140072;-67
2023/11/28 10:56:09;;;;;;;23.40;15.80;;;;;;;-2.19;100.00;97548.41;436499;1252;125525;-65
2023/11/28 11:06:18;;;;;;;23.10;15.80;;;;;;;-2.14;100.00;97540.98;436972;1252;140330;-63
2023/11/28 11:16:32;;;;;;;27.80;19.10;;;;;;;-2.04;100.00;97545.49;436683;1251;140455;-63
2023/11/28 11:26:40;;;;;;;26.70;18.00;;;;;;;-2.02;99.61;97543.02;436763;1249;140672;-63
2023/11/28 11:37:05;;;;;;;24.20;17.40;;;;;;;-2.07;99.32;97536.73;436418;1253;141612;-71
2023/11/28 11:47:20;;;;;;;22.60;16.00;;;;;;;-2.15;99.22;97549.44;436437;1253;140484;-67
2023/11/28 11:57:27;;;;;;;29.10;20.70;;;;;;;-2.21;99.08;97557.25;436513;1251;152868;-73
2023/11/28 12:07:34;;;;;;;23.40;17.30;;;;;;;-2.34;98.98;97561.92;437377;1252;139708;-69
2023/11/28 12:17:41;;;;;;;29.10;18.10;;;;;;;-2.44;98.93;97565.10;436367;1251;140586;-71
2023/11/28 12:27:48;;;;;;;26.30;19.40;;;;;;;-2.58;99.02;97554.91;436368;1251;139867;-71
2023/11/28 12:37:54;;;;;;;26.20;18.70;;;;;;;-2.59;99.32;97542.43;436737;1253;139805;-67
2023/11/28 12:48:03;;;;;;;25.00;19.00;;;;;;;-2.65;99.42;97542.36;438745;1250;140370;-66
2023/11/28 12:58:09;;;;;;;27.60;20.00;;;;;;;-2.70;99.49;97544.27;436497;1251;141002;-68
2023/11/28 13:08:18;;;;;;;27.90;19.20;;;;;;;-2.75;99.38;97561.13;437076;1251;139941;-66
2023/11/28 13:18:24;;;;;;;30.30;21.00;;;;;;;-2.72;99.69;97559.42;437286;1252;140979;-66
2023/11/28 13:28:31;;;;;;;32.50;21.40;;;;;;;-2.70;99.89;97563.13;436714;1252;140667;-70
2023/11/28 13:38:37;;;;;;;30.10;21.50;;;;;;;-2.70;99.87;97562.42;439791;1253;139974;-68
2023/11/28 13:48:43;;;;;;;30.30;20.40;;;;;;;-2.69;99.86;97561.54;440680;1251;140100;-67
2023/11/28 13:58:48;;;;;;;;;;;;;;;-2.70;99.77;97572.52;436612;1252;140076;-70
2023/11/28 14:08:54;;;;;;;31.40;21.90;;;;;;;-2.74;99.82;97581.98;440163;1249;125588;-68
2023/11/28 14:19:01;;;;;;;36.70;21.80;;;;;;;-2.87;99.98;97595.51;437753;1249;139753;-72
2023/11/28 14:29:07;;;;;;;32.80;22.50;;;;;;;-3.02;99.89;97594.40;440334;1251;140154;-72
2023/11/28 14:39:15;;;;;;;30.20;22.20;;;;;;;-3.14;99.94;97612.67;440374;1251;143301;-75
2023/11/28 14:49:21;;;;;;;32.80;22.90;;;;;;;-3.24;100.00;97617.38;439062;1250;140563;-69
2023/11/28 14:59:27;;;;;;;28.90;21.20;;;;;;;-3.34;100.00;97627.33;437676;1249;140480;-72
2023/11/28 15:09:34;;;;;;;30.50;21.70;;;;;;;-3.41;100.00;97633.05;438111;1253;140307;-70
2023/11/28 15:19:42;;;;;;;27.90;19.50;;;;;;;-3.44;100.00;97639.85;438586;1253;140053;-69
2023/11/28 15:29:49;;;;;;;29.40;21.80;;;;;;;-3.47;100.00;97648.02;438815;1254;140179;-78
2023/11/28 15:39:56;;;;;;;32.10;21.90;;;;;;;-3.47;100.00;97661.88;438832;1254;140465;-73
2023/11/28 15:50:03;;;;;;;33.70;22.60;;;;;;;-3.45;100.00;97679.80;436041;1254;140653;-75
2023/11/28 16:00:11;;;;;;;33.90;22.80;;;;;;;-3.46;100.00;97685.10;436020;1251;140924;-66
2023/11/28 16:10:18;;;;;;;36.20;26.00;;;;;;;-3.48;100.00;97687.40;436046;1253;140223;-66
2023/11/28 16:20:24;;;;;;;43.20;28.10;;;;;;;-3.50;100.00;97692.63;436250;1250;139737;-67
2023/11/28 16:30:31;;;;;;;39.10;26.20;;;;;;;-3.56;100.00;97707.55;435803;1251;140461;-67
2023/11/28 16:40:42;;;;;;;49.50;33.10;;;;;;;-3.65;100.00;97717.29;435662;1252;139784;-66
2023/11/28 16:50:48;;;;;;;44.80;28.70;;;;;;;-3.76;100.00;97722.95;437606;1251;140372;-67
2023/11/28 17:00:55;;;;;;;36.40;24.20;;;;;;;-3.89;100.00;97732.13;436703;1251;140207;-66
2023/11/28 17:11:02;;;;;;;38.50;26.00;;;;;;;-4.01;100.00;97743.34;435816;1252;140287;-66
2023/11/28 17:21:15;;;;;;;38.20;27.30;;;;;;;-4.09;100.00;97762.05;435242;1253;141341;-68
2023/11/28 17:31:22;;;;;;;40.10;25.80;;;;;;;-4.10;100.00;97769.77;436687;1251;140381;-67
2023/11/28 17:41:28;;;;;;;40.20;29.60;;;;;;;-4.07;100.00;97785.08;436267;1251;142404;-67
2023/11/28 17:51:34;;;;;;;42.10;31.70;;;;;;;-4.07;100.00;97796.17;435446;1253;139997;-66
2023/11/28 18:01:44;;;;;;;51.10;34.60;;;;;;;-4.12;100.00;97805.90;435943;1253;139887;-67
2023/11/28 18:11:50;;;;;;;43.20;30.30;;;;;;;-4.20;100.00;97827.20;436915;1253;140263;-67
2023/11/28 18:21:57;;;;;;;40.30;28.80;;;;;;;-4.29;100.00;97839.42;435914;1254;140683;-66
2023/11/28 18:32:03;;;;;;;42.60;29.90;;;;;;;-4.36;100.00;97857.07;435848;1253;140567;-67
2023/11/28 18:42:10;;;;;;;42.30;29.10;;;;;;;-4.42;100.00;97879.30;435595;1251;141772;-66
2023/11/28 18:52:16;;;;;;;43.50;30.40;;;;;;;-4.56;100.00;97899.36;435455;1253;140788;-66
2023/11/28 19:02:22;;;;;;;47.60;31.40;;;;;;;-4.70;100.00;97924.02;435773;1250;139813;-66
2023/11/28 19:12:29;;;;;;;42.80;30.00;;;;;;;-4.80;100.00;97938.64;435841;1250;141173;-65
2023/11/28 19:22:35;;;;;;;44.90;29.40;;;;;;;-4.83;100.00;97958.55;435808;1251;140401;-66
2023/11/28 19:32:41;;;;;;;41.20;28.50;;;;;;;-4.86;100.00;97969.37;435687;1250;140972;-66
2023/11/28 19:42:47;;;;;;;45.20;30.40;;;;;;;-4.86;100.00;97974.46;438134;1250;141283;-66
2023/11/28 19:52:54;;;;;;;50.30;33.70;;;;;;;-4.88;100.00;97979.48;437003;1250;141055;-66
2023/11/28 20:03:01;;;;;;;44.90;29.80;;;;;;;-4.95;100.00;97997.06;435890;1252;139897;-66
2023/11/28 20:13:08;;;;;;;43.60;28.80;;;;;;;-5.07;100.00;98006.80;435901;1251;139831;-66
2023/11/28 20:23:14;;;;;;;44.70;32.40;;;;;;;-5.28;100.00;98012.77;435575;1253;141151;-67
2023/11/28 20:33:20;;;;;;;41.60;28.20;;;;;;;-5.49;100.00;98023.67;435598;1253;140149;-65
2023/11/28 20:43:27;;;;;;;53.10;34.80;;;;;;;-5.67;100.00;98034.34;435561;1254;140705;-69
2023/11/28 20:53:34;;;;;;;54.90;36.60;;;;;;;-5.79;100.00;98049.95;435517;1255;140863;-68
2023/11/28 21:03:40;;;;;;;50.10;32.80;;;;;;;-5.88;100.00;98057.30;435678;1252;140682;-68
2023/11/28 21:13:48;;;;;;;52.20;35.30;;;;;;;-5.98;100.00;98056.84;435618;1253;140247;-69
2023/11/28 21:23:54;;;;;;;48.70;33.00;;;;;;;-6.06;100.00;98062.84;435908;1254;141581;-69
2023/11/28 21:34:01;;;;;;;55.50;36.70;;;;;;;-6.13;100.00;98072.70;435708;1250;142078;-69
2023/11/28 21:44:07;;;;;;;49.70;32.20;;;;;;;-6.19;100.00;98076.90;435808;1250;140622;-69
2023/11/28 21:54:14;;;;;;;49.30;32.30;;;;;;;-6.24;100.00;98083.48;435414;1254;140736;-69
2023/11/28 22:04:21;;;;;;;49.60;33.50;;;;;;;-6.28;100.00;98097.71;435799;1250;140938;-69
2023/11/28 22:14:27;;;;;;;40.20;28.50;;;;;;;-6.20;100.00;98111.16;435616;1253;140133;-70
2023/11/28 22:24:33;;;;;;;46.60;30.80;;;;;;;-5.96;100.00;98128.05;436264;1254;140680;-69
2023/11/28 22:34:40;;;;;;;37.20;28.70;;;;;;;-5.77;100.00;98135.50;435851;1254;139952;-69
2023/11/28 22:44:47;;;;;;;47.00;30.40;;;;;;;-5.70;100.00;98138.74;436078;1254;139722;-70
2023/11/28 22:54:53;;;;;;;41.60;25.00;;;;;;;-5.65;100.00;98159.93;435432;1253;140537;-70
2023/11/28 23:04:59;;;;;;;40.40;28.80;;;;;;;-5.56;100.00;98179.73;435536;1253;140799;-69
2023/11/28 23:15:07;;;;;;;44.80;27.70;;;;;;;-5.41;100.00;98201.06;435634;1255;139857;-69
2023/11/28 23:25:13;;;;;;;39.40;27.00;;;;;;;-5.28;100.00;98205.73;436800;1253;140635;-70
2023/11/28 23:35:20;;;;;;;39.90;24.00;;;;;;;-5.20;100.00;98215.45;436044;1253;140170;-70
2023/11/28 23:45:27;;;;;;;34.40;21.70;;;;;;;-5.14;100.00;98231.68;435806;1255;139976;-68
2023/11/28 23:55:34;;;;;;;37.00;23.10;;;;;;;-5.08;100.00;98240.77;435648;1253;165924;-69
